Time;durP1;ratioP1;P1;durP2;ratioP2;P2;SDS_P1;SDS_P2;PMS_P1;PMS_P2;Temp;Humidity;BMP_temperature;BMP_pressure;BME280_temperature;BME280_humidity;BME280_pressure;Samples;Min_cycle;Max_cycle;Signal;HPM_P1;HPM_P2
2022/08/23 00:00:18;;;;;;;;;;;;;;;16.27;99.47;101304.59;1024540;29;19923;-77
2022/08/23 00:00:50;;;;;;;;;;;;;;;16.29;99.32;101298.97;1024672;29;19929;-77
2022/08/23 00:01:22;;;;;;;;;;;;;;;16.31;99.28;101294.97;1024741;29;19923;-77
2022/08/23 00:01:55;;;;;;;;;;;;;;;16.34;99.15;101299.03;1024310;28;19987;-77
2022/08/23 00:02:27;;;;;;;;;;;;;;;16.39;98.98;101301.81;1024258;29;19929;-77
2022/08/23 00:02:59;;;;;;;;;;;;;;;16.38;98.63;101298.31;1024339;29;20334;-77
2022/08/23 00:03:33;;;;;;;;;;;;;;;16.41;98.56;101297.00;1019791;29;19971;-77
2022/08/23 00:04:06;;;;;;;;;;;;;;;16.45;98.31;101297.34;1020895;29;20407;-76
2022/08/23 00:04:39;;;;;;;;;;;;;;;16.46;98.19;101299.81;1016287;29;19979;-77
2022/08/23 00:05:31;;;;;;;;;;;;;;;16.45;98.07;101297.34;1018235;29;19954;-77
2022/08/23 00:06:02;;;;;;;;;;;;;;;16.45;97.92;101294.66;1020605;29;19923;-77
2022/08/23 00:06:34;;;;;;;;;;;;;;;16.45;97.81;101300.03;1022940;29;19929;-77
2022/08/23 00:07:07;;;;;;;;;;;;;;;16.45;97.86;101294.66;1020308;29;20012;-77
2022/08/23 00:07:39;;;;;;;;;;;;;;;16.37;97.79;101290.50;1020521;29;19926;-77
2022/08/23 00:08:11;;;;;;;;;;;;;;;16.38;97.73;101290.25;1020040;29;20401;-76
2022/08/23 00:08:44;;;;;;;;;;;;;;;16.42;97.87;101292.44;1021298;29;20284;-77
2022/08/23 00:09:19;;;;;;;;;;;;;;;16.45;97.73;101294.66;1024437;29;19930;-77
2022/08/23 00:09:51;;;;;;;;;;;;;;;16.46;97.73;101288.22;1024736;29;20382;-76
2022/08/23 00:10:22;;;;;;;;;;;;;;;16.43;97.96;101286.81;1023017;29;19923;-77
2022/08/23 00:10:54;;;;;;;;;;;;;;;16.36;97.97;101286.97;1016341;29;20425;-77
2022/08/23 00:11:34;;;;;;;;;;;;;;;16.36;97.82;101292.38;1016650;29;19946;-77
2022/08/23 00:12:06;;;;;;;;;;;;;;;16.39;97.72;101289.19;1012248;29;20249;-76
2022/08/23 00:12:37;;;;;;;;;;;;;;;16.41;97.49;101291.63;1016268;29;19931;-77
2022/08/23 00:13:09;;;;;;;;;;;;;;;16.46;97.29;101285.53;1020024;29;20401;-76
2022/08/23 00:13:41;;;;;;;;;;;;;;;16.51;97.11;101288.31;1020898;29;19923;-76
2022/08/23 00:14:30;;;;;;;;;;;;;;;16.54;97.03;101277.06;1024061;29;19929;-77
2022/08/23 00:15:03;;;;;;;;;;;;;;;16.53;96.73;101283.50;1020624;29;19923;-77
2022/08/23 00:15:36;;;;;;;;;;;;;;;16.53;96.38;101280.81;1016176;29;19923;-77
2022/08/23 00:16:08;;;;;;;;;;;;;;;16.46;96.87;101280.97;1016678;29;19926;-77
2022/08/23 00:16:40;;;;;;;;;;;;;;;16.38;97.25;101273.28;1020400;29;19931;-77
2022/08/23 00:17:15;;;;;;;;;;;;;;;16.34;97.36;101278.34;1017611;29;19923;-77
2022/08/23 00:18:04;;;;;;;;;;;;;;;16.37;97.47;101277.03;1016124;29;20541;-78
2022/08/23 00:18:36;;;;;;;;;;;;;;;16.39;97.47;101275.75;1016706;29;19927;-78
2022/08/23 00:19:09;;;;;;;;;;;;;;;16.37;97.41;101283.25;1019836;29;19927;-78
2022/08/23 00:19:40;;;;;;;;;;;;;;;16.41;98.07;101288.13;1020387;29;19922;-78
2022/08/23 00:20:16;;;;;;;;;;;;;;;16.44;97.72;101274.22;1020517;29;20272;-78
2022/08/23 00:20:48;;;;;;;;;;;;;;;16.46;98.20;101274.78;1020583;29;20276;-78
2022/08/23 00:21:20;;;;;;;;;;;;;;;16.42;98.44;101279.81;1020791;29;20390;-78
2022/08/23 00:21:53;;;;;;;;;;;;;;;16.43;98.09;101269.88;1020270;29;19926;-78
2022/08/23 00:22:25;;;;;;;;;;;;;;;16.46;98.02;101269.41;1020401;29;19935;-78
2022/08/23 00:22:56;;;;;;;;;;;;;;;16.49;97.73;101272.41;1020459;29;19970;-78
2022/08/23 00:23:28;;;;;;;;;;;;;;;16.48;97.52;101278.03;1020170;29;19933;-78
2022/08/23 00:24:00;;;;;;;;;;;;;;;16.43;97.30;101270.69;1020861;29;19930;-78
2022/08/23 00:24:31;;;;;;;;;;;;;;;16.29;98.07;101275.59;1024311;29;19922;-78
2022/08/23 00:25:09;;;;;;;;;;;;;;;16.23;98.82;101279.25;1024798;29;19922;-78
2022/08/23 00:25:41;;;;;;;;;;;;;;;16.24;99.08;101272.81;1023915;29;19930;-78
2022/08/23 00:26:12;;;;;;;;;;;;;;;16.31;98.42;101272.66;1021323;29;20386;-78
2022/08/23 00:26:58;;;;;;;;;;;;;;;16.35;98.51;101274.59;1020641;29;20406;-78
2022/08/23 00:27:30;;;;;;;;;;;;;;;16.39;98.33;101274.94;1015986;29;19923;-78
2022/08/23 00:28:02;;;;;;;;;;;;;;;16.38;98.52;101273.28;1016460;29;20405;-78
2022/08/23 00:28:35;;;;;;;;;;;;;;;16.34;98.91;101277.53;1012387;29;19930;-77
2022/08/23 00:29:07;;;;;;;;;;;;;;;16.30;98.75;101274.53;1013105;29;19923;-77
2022/08/23 00:29:43;;;;;;;;;;;;;;;16.30;98.38;101271.84;1016192;29;19923;-78
2022/08/23 00:30:15;;;;;;;;;;;;;;;16.31;98.32;101278.84;1017836;29;19938;-77
2022/08/23 00:30:47;;;;;;;;;;;;;;;16.33;98.41;101271.34;1022133;28;20378;-78
2022/08/23 00:31:21;;;;;;;;;;;;;;;16.31;98.30;101278.84;1016102;29;19930;-77
2022/08/23 00:31:52;;;;;;;;;;;;;;;16.31;98.53;101278.84;1016296;29;19946;-78
2022/08/23 00:32:25;;;;;;;;;;;;;;;16.30;98.40;101266.47;1016300;29;19979;-78
2022/08/23 00:32:56;;;;;;;;;;;;;;;16.25;98.60;101273.63;1015333;29;19923;-78
2022/08/23 00:33:28;;;;;;;;;;;;;;;16.17;98.72;101272.16;1018963;29;19922;-78
2022/08/23 00:34:00;;;;;;;;;;;;;;;16.20;98.92;101273.53;1020119;29;19957;-78
2022/08/23 00:34:31;;;;;;;;;;;;;;;16.18;98.93;101273.78;1020865;29;19923;-78
2022/08/23 00:35:04;;;;;;;;;;;;;;;16.11;99.08;101273.09;1023956;29;20588;-78
2022/08/23 00:35:36;;;;;;;;;;;;;;;16.03;99.17;101270.81;1024152;29;19922;-78
2022/08/23 00:36:07;;;;;;;;;;;;;;;16.10;98.99;101271.47;1024256;29;19970;-78
2022/08/23 00:36:39;;;;;;;;;;;;;;;16.05;98.91;101269.53;1024029;29;19923;-78
2022/08/23 00:37:11;;;;;;;;;;;;;;;16.08;98.85;101268.22;1020039;29;19930;-77
2022/08/23 00:37:43;;;;;;;;;;;;;;;16.04;99.13;101265.22;1016491;29;19942;-78
2022/08/23 00:38:21;;;;;;;;;;;;;;;16.02;99.59;101263.81;1012415;29;19924;-78
2022/08/23 00:39:05;;;;;;;;;;;;;;;16.05;99.79;101268.72;1013519;29;20067;-77
2022/08/23 00:39:37;;;;;;;;;;;;;;;16.08;99.64;101268.22;1016369;29;19927;-78
2022/08/23 00:40:10;;;;;;;;;;;;;;;16.00;99.72;101265.94;1014618;29;19923;-78
2022/08/23 00:40:45;;;;;;;;;;;;;;;16.01;99.92;101267.56;1014854;29;19924;-78
2022/08/23 00:41:16;;;;;;;;;;;;;;;15.97;99.92;101264.56;1012263;29;19923;-77
2022/08/23 00:41:48;;;;;;;;;;;;;;;15.95;100.00;101263.16;1014975;29;19931;-78
2022/08/23 00:48:16;;;;;;;;;;;;;;;15.61;100.00;101268.44;1004584;29;19924;-78
2022/08/23 00:48:47;;;;;;;;;;;;;;;15.59;100.00;101265.16;999973;29;20384;-78
2022/08/23 00:49:19;;;;;;;;;;;;;;;15.56;100.00;101264.78;1000613;29;19925;-78
2022/08/23 00:50:12;;;;;;;;;;;;;;;15.50;100.00;101257.69;1001168;29;19928;-78
2022/08/23 00:50:59;;;;;;;;;;;;;;;15.53;100.00;101267.97;1001681;29;19993;-78
2022/08/23 00:51:57;;;;;;;;;;;;;;;15.50;100.00;101261.19;998859;29;19931;-77
2022/08/23 00:52:55;;;;;;;;;;;;;;;15.50;100.00;101261.19;998940;29;19931;-78
2022/08/23 00:53:28;;;;;;;;;;;;;;;15.55;100.00;101269.34;1004394;29;20018;-78
2022/08/23 00:54:02;;;;;;;;;;;;;;;15.57;100.00;101261.06;1003868;29;19933;-78
2022/08/23 00:54:35;;;;;;;;;;;;;;;15.54;100.00;101266.91;1012566;29;20006;-78
2022/08/23 00:55:08;;;;;;;;;;;;;;;15.55;100.00;101272.03;1012451;29;20299;-78
2022/08/23 00:55:40;;;;;;;;;;;;;;;15.55;100.00;101269.34;1009306;29;19923;-78
2022/08/23 00:56:12;;;;;;;;;;;;;;;15.57;100.00;101269.94;1009626;29;19924;-78
2022/08/23 00:56:43;;;;;;;;;;;;;;;15.47;99.99;101272.41;1013794;29;19931;-78
2022/08/23 00:57:16;;;;;;;;;;;;;;;15.31;99.99;101273.97;1012771;29;19930;-78
2022/08/23 00:57:48;;;;;;;;;;;;;;;15.38;100.00;101268.47;1012726;29;19929;-77
2022/08/23 00:58:20;;;;;;;;;;;;;;;15.41;100.00;101268.00;1012332;29;20301;-78
2022/08/23 00:58:52;;;;;;;;;;;;;;;15.45;100.00;101271.84;1013284;29;20426;-78
2022/08/23 00:59:23;;;;;;;;;;;;;;;15.45;100.00;101272.66;1016630;29;19930;-78
2022/08/23 00:59:55;;;;;;;;;;;;;;;15.38;100.00;101273.84;1020639;29;20422;-78
2022/08/23 01:00:27;;;;;;;;;;;;;;;15.38;100.00;101281.91;1023437;29;19930;-78
2022/08/23 01:00:59;;;;;;;;;;;;;;;15.27;100.00;101274.66;1023565;28;19965;-78
2022/08/23 01:01:31;;;;;;;;;;;;;;;15.24;100.00;101273.28;1024192;29;20436;-78
2022/08/23 01:02:03;;;;;;;;;;;;;;;15.26;100.00;101276.53;1019553;29;20302;-78
2022/08/23 01:02:35;;;;;;;;;;;;;;;15.24;100.00;101275.16;1019935;29;20296;-78
2022/08/23 01:03:07;;;;;;;;;;;;;;;15.21;100.00;101272.94;1015854;29;19930;-78
2022/08/23 01:03:39;;;;;;;;;;;;;;;15.21;100.00;101272.94;1016886;29;19958;-78
2022/08/23 01:04:12;;;;;;;;;;;;;;;15.16;100.00;101273.66;1017890;29;19930;-78
2022/08/23 01:04:47;;;;;;;;;;;;;;;15.09;100.00;101273.78;1020135;29;19927;-78
2022/08/23 01:05:19;;;;;;;;;;;;;;;15.08;100.00;101279.38;1017924;29;19923;-78
2022/08/23 01:05:54;;;;;;;;;;;;;;;15.08;100.00;101280.22;1017441;29;19923;-78
2022/08/23 01:06:28;;;;;;;;;;;;;;;15.06;100.00;101274.22;1018303;29;20314;-78
2022/08/23 01:07:01;;;;;;;;;;;;;;;15.00;100.00;101275.19;1019018;29;19923;-78
2022/08/23 01:07:45;;;;;;;;;;;;;;;14.92;100.00;101274.72;1020802;28;20023;-78
2022/08/23 01:08:17;;;;;;;;;;;;;;;14.95;100.00;101275.06;1016075;29;20377;-77
2022/08/23 01:08:51;;;;;;;;;;;;;;;14.96;100.00;101279.38;1012136;29;20296;-78
2022/08/23 01:09:22;;;;;;;;;;;;;;;14.97;100.00;101274.84;1017875;29;19927;-78
2022/08/23 01:09:55;;;;;;;;;;;;;;;14.98;100.00;101273.78;1013381;29;19924;-78
2022/08/23 01:10:28;;;;;;;;;;;;;;;14.97;100.00;101278.34;1015657;29;19930;-78
2022/08/23 01:11:03;;;;;;;;;;;;;;;14.92;100.00;101278.22;1016142;29;19931;-78
2022/08/23 01:11:40;;;;;;;;;;;;;;;14.89;100.00;101270.66;1017761;29;19923;-78
2022/08/23 01:12:15;;;;;;;;;;;;;;;14.89;100.00;101275.19;1019713;29;19923;-78
2022/08/23 01:12:51;;;;;;;;;;;;;;;14.90;100.00;101274.97;1013903;29;19924;-78
2022/08/23 01:13:24;;;;;;;;;;;;;;;14.88;100.00;101269.00;1008394;29;19924;-78
2022/08/23 01:13:57;;;;;;;;;;;;;;;14.86;100.00;101268.44;1006395;29;19931;-78
2022/08/23 01:14:33;;;;;;;;;;;;;;;14.80;100.00;101272.06;1006025;29;20034;-78
2022/08/23 01:15:09;;;;;;;;;;;;;;;14.74;100.00;101272.97;1005863;29;19930;-78
2022/08/23 01:15:42;;;;;;;;;;;;;;;14.73;100.00;101276.69;1010759;29;19924;-77
2022/08/23 01:16:25;;;;;;;;;;;;;;;14.68;100.00;101268.53;1013663;29;19931;-77
2022/08/23 01:17:02;;;;;;;;;;;;;;;14.61;100.00;101270.53;1018208;29;19923;-77
2022/08/23 01:17:35;;;;;;;;;;;;;;;14.57;100.00;101272.88;1019067;29;20364;-77
2022/08/23 01:18:07;;;;;;;;;;;;;;;14.51;100.00;101274.56;1015959;29;20384;-78
2022/08/23 01:18:39;;;;;;;;;;;;;;;14.50;100.00;101272.13;1016364;29;19923;-77
2022/08/23 01:19:13;;;;;;;;;;;;;;;14.49;100.00;101271.31;1015386;29;19934;-77
2022/08/23 01:19:53;;;;;;;;;;;;;;;14.52;100.00;101275.44;1017153;29;19922;-77
2022/08/23 01:20:24;;;;;;;;;;;;;;;14.49;100.00;101270.50;1016326;29;19923;-77
2022/08/23 01:21:18;;;;;;;;;;;;;;;14.42;100.00;101273.25;1016486;29;20296;-77
2022/08/23 01:21:59;;;;;;;;;;;;;;;14.54;100.00;101278.69;1016016;29;19930;-77
2022/08/23 01:22:40;;;;;;;;;;;;;;;14.57;100.00;101272.03;1017150;29;20253;-77
2022/08/23 01:23:18;;;;;;;;;;;;;;;14.66;100.00;101276.00;1016127;29;19923;-77
2022/08/23 01:23:51;;;;;;;;;;;;;;;14.67;100.00;101283.00;1011667;29;19927;-77
2022/08/23 01:24:23;;;;;;;;;;;;;;;14.69;100.00;101275.53;1014873;29;19923;-77
2022/08/23 01:25:16;;;;;;;;;;;;;;;14.75;100.00;101282.66;1015894;29;19934;-77
2022/08/23 01:25:48;;;;;;;;;;;;;;;14.74;100.00;101286.38;1015717;29;19923;-77
2022/08/23 01:26:21;;;;;;;;;;;;;;;14.75;100.00;101280.78;1007042;29;19924;-77
2022/08/23 01:26:53;;;;;;;;;;;;;;;14.76;100.00;101278.91;1005707;29;19924;-77
2022/08/23 01:27:27;;;;;;;;;;;;;;;14.76;100.00;101281.59;1008117;29;19924;-77
2022/08/23 01:28:00;;;;;;;;;;;;;;;14.77;100.00;101280.53;1006701;29;19928;-77
2022/08/23 01:28:35;;;;;;;;;;;;;;;14.81;100.00;101279.88;1012076;29;19972;-77
2022/08/23 01:29:06;;;;;;;;;;;;;;;14.81;100.00;101284.41;1009112;29;19923;-77
2022/08/23 01:29:39;;;;;;;;;;;;;;;14.85;100.00;101285.59;1013490;29;19923;-77
2022/08/23 01:30:11;;;;;;;;;;;;;;;14.81;100.00;101284.41;1011411;29;20002;-77
2022/08/23 01:30:45;;;;;;;;;;;;;;;14.72;100.00;101281.25;1012950;29;20380;-77
2022/08/23 01:31:17;;;;;;;;;;;;;;;14.79;100.00;101281.13;1015927;29;19930;-78
2022/08/23 01:31:51;;;;;;;;;;;;;;;14.87;100.00;101272.75;1011951;29;19931;-77
2022/08/23 01:32:24;;;;;;;;;;;;;;;14.88;100.00;101274.38;1009382;29;19931;-77
2022/08/23 01:32:57;;;;;;;;;;;;;;;14.91;100.00;101279.28;1007732;29;20296;-77
2022/08/23 01:33:30;;;;;;;;;;;;;;;14.96;100.00;101284.75;1009607;29;19931;-77
2022/08/23 01:34:03;;;;;;;;;;;;;;;14.97;100.00;101277.50;1016679;29;19946;-77
2022/08/23 01:34:35;;;;;;;;;;;;;;;14.94;100.00;101273.44;1020084;29;19923;-77
2022/08/23 01:35:15;;;;;;;;;;;;;;;14.88;100.00;101279.75;1019952;29;19927;-77
2022/08/23 01:35:48;;;;;;;;;;;;;;;14.75;100.00;101279.97;1020078;29;20006;-77
2022/08/23 01:36:20;;;;;;;;;;;;;;;14.66;100.00;101276.81;1016744;29;19923;-77
2022/08/23 01:36:56;;;;;;;;;;;;;;;14.61;100.00;101278.56;1011827;29;19923;-77
2022/08/23 01:37:28;;;;;;;;;;;;;;;14.63;100.00;101281.84;1008181;29;19986;-77
2022/08/23 01:38:00;;;;;;;;;;;;;;;14.68;100.00;101284.63;1006741;29;19924;-77
2022/08/23 01:38:31;;;;;;;;;;;;;;;14.70;100.00;101282.53;1004492;29;20027;-77
2022/08/23 01:39:04;;;;;;;;;;;;;;;14.68;100.00;101279.28;1009496;29;20435;-77
2022/08/23 01:39:36;;;;;;;;;;;;;;;14.53;100.00;101283.22;1014654;29;19924;-77
2022/08/23 01:40:10;;;;;;;;;;;;;;;14.53;100.00;101280.56;1020541;29;19930;-77
2022/08/23 01:40:41;;;;;;;;;;;;;;;14.56;100.00;101281.13;1023530;29;19922;-77
2022/08/23 01:41:13;;;;;;;;;;;;;;;14.59;100.00;101280.66;1019526;29;19927;-77
2022/08/23 01:41:45;;;;;;;;;;;;;;;14.51;100.00;101271.91;1016518;29;19923;-77
2022/08/23 01:42:17;;;;;;;;;;;;;;;14.51;100.00;101274.56;1019583;29;19966;-77
2022/08/23 01:42:48;;;;;;;;;;;;;;;14.45;100.00;101275.50;1020244;29;19926;-77
2022/08/23 01:43:23;;;;;;;;;;;;;;;14.37;100.00;101278.50;1023801;29;19922;-77
2022/08/23 01:43:56;;;;;;;;;;;;;;;14.40;100.00;101274.53;1022970;29;19928;-77
2022/08/23 01:44:30;;;;;;;;;;;;;;;14.38;100.00;101273.97;1015603;29;20299;-77
2022/08/23 01:45:02;;;;;;;;;;;;;;;14.32;100.00;101275.72;1016077;29;20330;-77
2022/08/23 01:45:35;;;;;;;;;;;;;;;14.32;100.00;101278.38;1016178;29;19934;-77
2022/08/23 01:46:11;;;;;;;;;;;;;;;14.31;100.00;101279.44;1017110;29;19927;-77
2022/08/23 01:46:43;;;;;;;;;;;;;;;14.31;100.00;101274.06;1020312;29;20077;-77
2022/08/23 01:47:15;;;;;;;;;;;;;;;14.24;100.00;101273.34;1014351;29;19967;-77
2022/08/23 01:47:46;;;;;;;;;;;;;;;14.24;100.00;101273.34;1012184;29;19923;-77
2022/08/23 01:48:19;;;;;;;;;;;;;;;14.23;100.00;101277.06;1011679;29;19927;-77
2022/08/23 01:48:53;;;;;;;;;;;;;;;14.23;100.00;101275.19;1015903;29;19923;-78
2022/08/23 01:49:30;;;;;;;;;;;;;;;14.25;100.00;101275.00;1020904;29;19922;-77
2022/08/23 01:50:02;;;;;;;;;;;;;;;14.25;100.00;101269.63;1020112;29;19923;-77
2022/08/23 01:50:34;;;;;;;;;;;;;;;14.24;100.00;101276.00;1019981;29;19923;-77
2022/08/23 01:51:11;;;;;;;;;;;;;;;14.26;100.00;101275.81;1019327;29;19945;-77
2022/08/23 01:51:43;;;;;;;;;;;;;;;14.38;100.00;101274.78;1015950;29;20030;-77
2022/08/23 01:52:16;;;;;;;;;;;;;;;14.37;100.00;101266.97;1015548;29;19930;-77
2022/08/23 01:52:48;;;;;;;;;;;;;;;14.36;100.00;101271.50;1015601;29;20054;-77
2022/08/23 01:53:22;;;;;;;;;;;;;;;14.41;100.00;101271.63;1017118;29;20462;-77
2022/08/23 01:53:53;;;;;;;;;;;;;;;14.46;100.00;101279.00;1018936;29;19993;-77
2022/08/23 01:54:29;;;;;;;;;;;;;;;14.50;100.00;101272.94;1019715;29;19923;-77
2022/08/23 01:55:02;;;;;;;;;;;;;;;14.53;100.00;101271.69;1020804;29;20414;-77
2022/08/23 01:55:34;;;;;;;;;;;;;;;14.56;100.00;101273.91;1022974;29;19981;-77
2022/08/23 01:56:06;;;;;;;;;;;;;;;14.59;100.00;101272.63;1011793;29;19991;-77
2022/08/23 01:56:40;;;;;;;;;;;;;;;14.59;100.00;101275.31;1011923;29;19923;-77
2022/08/23 01:57:14;;;;;;;;;;;;;;;14.56;100.00;101270.41;1017160;29;19927;-77
2022/08/23 01:57:46;;;;;;;;;;;;;;;14.52;100.00;101270.06;1014965;29;20017;-77
2022/08/23 01:58:20;;;;;;;;;;;;;;;14.53;100.00;101272.50;1015022;29;19923;-77
2022/08/23 01:58:52;;;;;;;;;;;;;;;14.55;100.00;101276.81;1011746;29;19972;-77
2022/08/23 01:59:24;;;;;;;;;;;;;;;14.52;100.00;101275.44;1016066;29;20422;-77
2022/08/23 01:59:57;;;;;;;;;;;;;;;14.46;100.00;101271.78;1012142;29;19923;-77
2022/08/23 02:00:31;;;;;;;;;;;;;;;14.46;100.00;101274.47;1008546;29;20020;-77
2022/08/23 02:01:03;;;;;;;;;;;;;;;14.45;100.00;101280.06;1018532;29;19930;-77
2022/08/23 02:01:36;;;;;;;;;;;;;;;14.41;100.00;101274.31;1014079;29;19966;-77
2022/08/23 02:02:08;;;;;;;;;;;;;;;14.40;100.00;101271.88;1016219;29;20017;-77
2022/08/23 02:02:40;;;;;;;;;;;;;;;14.38;100.00;101274.78;1018855;29;19922;-77
2022/08/23 02:03:12;;;;;;;;;;;;;;;14.35;100.00;101275.25;1019770;29;19927;-77
2022/08/23 02:03:44;;;;;;;;;;;;;;;14.33;100.00;101277.34;1020166;29;19938;-77
2022/08/23 02:04:21;;;;;;;;;;;;;;;14.30;100.00;101277.81;1020036;29;19926;-77
2022/08/23 02:04:52;;;;;;;;;;;;;;;14.33;100.00;101281.88;1015912;29;19970;-77
2022/08/23 02:05:25;;;;;;;;;;;;;;;14.31;100.00;101279.44;1016872;29;20009;-77
2022/08/23 02:05:57;;;;;;;;;;;;;;;14.41;100.00;101274.31;1016090;29;20047;-77
2022/08/23 02:06:28;;;;;;;;;;;;;;;14.45;100.00;101278.19;1016136;29;19923;-77
2022/08/23 02:07:01;;;;;;;;;;;;;;;14.47;100.00;101278.78;1015755;29;19923;-77
2022/08/23 02:07:33;;;;;;;;;;;;;;;14.49;100.00;101271.31;1012588;29;19923;-77
2022/08/23 02:09:00;;;;;;;;;;;;;;;14.53;100.00;101277.88;1019042;29;19923;-77
2022/08/23 02:09:36;;;;;;;;;;;;;;;14.47;100.00;101278.78;1023638;29;19922;-77
2022/08/23 02:10:09;;;;;;;;;;;;;;;14.43;100.00;101272.25;1019749;29;19922;-77
2022/08/23 02:10:41;;;;;;;;;;;;;;;14.41;100.00;101277.00;1019487;29;20302;-77
2022/08/23 02:11:14;;;;;;;;;;;;;;;14.42;100.00;101270.59;1019509;29;19945;-77
2022/08/23 02:11:49;;;;;;;;;;;;;;;14.38;100.00;101274.78;1016788;29;19923;-77
2022/08/23 02:12:22;;;;;;;;;;;;;;;14.40;100.00;101271.88;1015571;29;19923;-77
2022/08/23 02:12:58;;;;;;;;;;;;;;;14.34;100.00;101276.28;1015889;29;19994;-77
2022/08/23 02:13:30;;;;;;;;;;;;;;;14.28;100.00;101273.72;1015743;29;19938;-77
2022/08/23 02:14:04;;;;;;;;;;;;;;;14.22;100.00;101280.78;1019966;29;20009;-77
2022/08/23 02:14:44;;;;;;;;;;;;;;;14.20;100.00;101269.47;1017673;29;19929;-77
2022/08/23 02:15:23;;;;;;;;;;;;;;;14.19;100.00;101281.25;1015746;29;20294;-77
2022/08/23 02:15:57;;;;;;;;;;;;;;;14.14;100.00;101275.75;1016821;29;20387;-77
2022/08/23 02:16:31;;;;;;;;;;;;;;;14.11;100.00;101279.72;1013669;29;19927;-77
2022/08/23 02:17:03;;;;;;;;;;;;;;;14.10;100.00;101278.09;1016789;29;19923;-77
2022/08/23 02:17:36;;;;;;;;;;;;;;;14.06;100.00;101276.09;1015672;29;19966;-77
2022/08/23 02:18:07;;;;;;;;;;;;;;;14.07;100.00;101273.19;1016911;29;19975;-77
2022/08/23 02:18:39;;;;;;;;;;;;;;;14.06;100.00;101276.09;1019694;29;19923;-77
2022/08/23 02:19:11;;;;;;;;;;;;;;;14.00;100.00;101277.03;1016170;29;19927;-77
2022/08/23 02:19:43;;;;;;;;;;;;;;;13.99;100.00;101283.44;1019772;29;19923;-77
2022/08/23 02:20:15;;;;;;;;;;;;;;;13.99;100.00;101280.75;1016071;29;20330;-77
2022/08/23 02:20:48;;;;;;;;;;;;;;;13.99;100.00;101278.06;1015576;29;19923;-77
2022/08/23 02:21:20;;;;;;;;;;;;;;;13.98;100.00;101279.13;1011985;29;19932;-77
2022/08/23 02:21:52;;;;;;;;;;;;;;;14.01;100.00;101274.13;1010051;29;19931;-77
2022/08/23 02:22:24;;;;;;;;;;;;;;;14.03;100.00;101277.38;1012035;29;19932;-77
2022/08/23 02:22:55;;;;;;;;;;;;;;;14.06;100.00;101281.47;1008768;29;19924;-77
2022/08/23 02:23:27;;;;;;;;;;;;;;;14.04;100.00;101276.34;1012863;29;20360;-77
2022/08/23 02:23:59;;;;;;;;;;;;;;;14.07;100.00;101277.72;1015568;29;19930;-77
2022/08/23 02:24:30;;;;;;;;;;;;;;;14.07;100.00;101278.56;1016348;29;19946;-77
2022/08/23 02:25:02;;;;;;;;;;;;;;;14.03;100.00;101277.38;1020047;29;19923;-77
2022/08/23 02:25:33;;;;;;;;;;;;;;;14.11;100.00;101276.22;1016238;29;19930;-77
2022/08/23 02:26:05;;;;;;;;;;;;;;;14.17;100.00;101281.47;1019585;29;19959;-77
2022/08/23 02:26:38;;;;;;;;;;;;;;;14.22;100.00;101275.44;1019953;29;19922;-77
2022/08/23 02:27:17;;;;;;;;;;;;;;;14.07;100.00;101277.72;1015544;29;19938;-77
2022/08/23 02:27:49;;;;;;;;;;;;;;;14.04;100.00;101276.34;1012071;29;19923;-77
2022/08/23 02:28:22;;;;;;;;;;;;;;;14.05;100.00;101274.47;1009224;29;19949;-77
2022/08/23 02:28:53;;;;;;;;;;;;;;;14.07;100.00;101275.88;1008487;29;19923;-77
2022/08/23 02:29:30;;;;;;;;;;;;;;;14.12;100.00;101277.88;1011736;29;20303;-77
2022/08/23 02:30:06;;;;;;;;;;;;;;;14.10;100.00;101271.91;1011931;29;19975;-77
2022/08/23 02:30:39;;;;;;;;;;;;;;;14.11;100.00;101271.69;1013659;29;20006;-77
2022/08/23 02:31:13;;;;;;;;;;;;;;;14.10;100.00;101271.91;1017854;29;20072;-77
2022/08/23 02:31:44;;;;;;;;;;;;;;;14.14;100.00;101273.09;1019793;29;20062;-77
2022/08/23 02:32:17;;;;;;;;;;;;;;;14.20;100.00;101269.47;1019601;29;20466;-77
2022/08/23 02:32:48;;;;;;;;;;;;;;;14.28;100.00;101268.34;1019133;29;19923;-77
2022/08/23 02:33:25;;;;;;;;;;;;;;;14.22;100.00;101270.06;1016790;29;19930;-77
2022/08/23 02:33:57;;;;;;;;;;;;;;;14.16;100.00;101271.00;1019790;29;19930;-77
2022/08/23 02:34:30;;;;;;;;;;;;;;;14.10;100.00;101266.56;1017284;29;20014;-77
2022/08/23 02:35:02;;;;;;;;;;;;;;;14.02;100.00;101272.25;1018668;29;19930;-76
2022/08/23 02:35:37;;;;;;;;;;;;;;;14.05;100.00;101269.13;1020078;29;20009;-77
2022/08/23 02:36:09;;;;;;;;;;;;;;;14.06;100.00;101270.75;1018604;29;19923;-77
2022/08/23 02:36:41;;;;;;;;;;;;;;;14.08;100.00;101271.34;1021741;29;19927;-77
2022/08/23 02:37:13;;;;;;;;;;;;;;;14.08;100.00;101271.34;1020820;29;20191;-77
2022/08/23 02:37:44;;;;;;;;;;;;;;;14.13;100.00;101271.47;1011825;29;19947;-77
2022/08/23 02:38:17;;;;;;;;;;;;;;;14.12;100.00;101272.50;1014856;29;19923;-77
2022/08/23 02:38:48;;;;;;;;;;;;;;;14.09;100.00;101270.28;1011849;29;20395;-77
2022/08/23 02:39:20;;;;;;;;;;;;;;;14.05;100.00;101269.94;1014314;29;19930;-77
2022/08/23 02:39:51;;;;;;;;;;;;;;;14.08;100.00;101263.28;1018987;29;19922;-77
2022/08/23 02:40:23;;;;;;;;;;;;;;;14.07;100.00;101272.38;1018736;29;19923;-77
2022/08/23 02:40:55;;;;;;;;;;;;;;;14.03;100.00;101263.97;1019790;29;19930;-78
2022/08/23 02:41:33;;;;;;;;;;;;;;;14.05;100.00;101272.59;1019878;29;19923;-77
2022/08/23 02:42:06;;;;;;;;;;;;;;;14.04;100.00;101267.47;1011769;29;19930;-77
2022/08/23 02:42:39;;;;;;;;;;;;;;;14.00;100.00;101268.97;1007918;29;20464;-77
2022/08/23 02:43:11;;;;;;;;;;;;;;;13.96;100.00;101265.91;1008913;29;20145;-77
2022/08/23 02:43:43;;;;;;;;;;;;;;;13.92;100.00;101270.91;1012702;29;19974;-77
2022/08/23 02:44:14;;;;;;;;;;;;;;;13.90;100.00;101262.28;1016233;29;20013;-77
2022/08/23 02:44:46;;;;;;;;;;;;;;;13.91;100.00;101263.94;1015887;29;19930;-77
2022/08/23 02:45:18;;;;;;;;;;;;;;;13.91;100.00;101263.94;1015421;29;19927;-77
2022/08/23 02:45:51;;;;;;;;;;;;;;;13.90;100.00;101264.97;1015786;29;19923;-77
2022/08/23 02:46:22;;;;;;;;;;;;;;;13.93;100.00;101261.84;1015925;29;20007;-77
2022/08/23 02:46:55;;;;;;;;;;;;;;;13.93;100.00;101267.19;1020643;29;19969;-77
2022/08/23 02:47:27;;;;;;;;;;;;;;;13.91;100.00;101269.28;1016886;29;20422;-77
2022/08/23 02:48:13;;;;;;;;;;;;;;;13.92;100.00;101265.56;1015854;29;19923;-77
2022/08/23 02:48:55;;;;;;;;;;;;;;;13.90;100.00;101273.00;1015503;29;19927;-77
2022/08/23 02:49:28;;;;;;;;;;;;;;;13.90;100.00;101272.19;1015711;29;20375;-77
2022/08/23 02:49:59;;;;;;;;;;;;;;;13.87;100.00;101273.47;1016102;29;19927;-77
2022/08/23 02:50:31;;;;;;;;;;;;;;;13.86;100.00;101269.16;1012456;29;19923;-77
2022/08/23 02:51:04;;;;;;;;;;;;;;;13.84;100.00;101268.56;1016215;29;19923;-77
2022/08/23 02:51:36;;;;;;;;;;;;;;;13.81;100.00;101274.38;1015308;29;19929;-77
2022/08/23 02:52:07;;;;;;;;;;;;;;;13.77;100.00;101273.22;1012341;29;19923;-77
2022/08/23 02:52:40;;;;;;;;;;;;;;;13.75;100.00;101272.63;1012093;29;20301;-77
2022/08/23 02:53:11;;;;;;;;;;;;;;;13.72;100.00;101275.75;1016020;29;19923;-77
2022/08/23 02:53:43;;;;;;;;;;;;;;;13.71;100.00;101279.47;1015672;29;20325;-77
2022/08/23 02:54:15;;;;;;;;;;;;;;;13.69;100.00;101275.34;1011687;29;20427;-77
2022/08/23 02:54:46;;;;;;;;;;;;;;;13.67;100.00;101277.44;1008206;29;19959;-77
2022/08/23 02:55:19;;;;;;;;;;;;;;;13.63;100.00;101277.09;1004373;29;19931;-77
2022/08/23 02:55:50;;;;;;;;;;;;;;;13.60;100.00;101266.84;1009073;29;19976;-77
2022/08/23 02:56:22;;;;;;;;;;;;;;;13.58;100.00;101271.59;1015575;29;19941;-77
2022/08/23 02:56:53;;;;;;;;;;;;;;;13.58;100.00;101275.09;1014352;29;19923;-77
2022/08/23 02:57:25;;;;;;;;;;;;;;;13.60;100.00;101277.53;1019833;29;19926;-77
2022/08/23 02:57:59;;;;;;;;;;;;;;;13.62;100.00;101264.75;1018621;29;19922;-77
2022/08/23 02:58:31;;;;;;;;;;;;;;;13.62;100.00;101272.78;1020382;28;19923;-78